Nueces — WDC2624 — position and weather

sailwx.info

Track history (hours):
 
Tides and Currents Weather Stations Pressure Air Temp Water Temp Dewpoint Dewpoint Depression Visibility Wind Speed Wind Dir Waves Ship Positions

Nueces

Owner: Kirby Inland Marine LP, Houston, TX. More information available from US FCC via Universal Licensing System and Coast Guard Vessel Documentation Center.

Last reported at 2017-Sep-21 04:52 UTC. Time now 2017-Sep-22 19:09 UTC.
Position N 29°28' W 094°51'.

Length 109 m; draft 2.9 m.

Type: . MMSI: 366995720.

Date/timePositionNaut miles runAvg speedWind from/ knotsBaromVisibWave heightAir tempDewpointWater temp
2017-Sep-21 04:52N 29°28' W 094°51'2 5.9
2017-Sep-21 04:30N 29°30' W 094°52'3 5.8
2017-Sep-21 04:00N 29°32' W 094°54'3 5.5
2017-Sep-21 03:30N 29°34' W 094°56'3 5.4
2017-Sep-21 03:00N 29°37' W 094°57'3 5.6
2017-Sep-21 02:30N 29°39' W 094°58'3 5.4
2017-Sep-21 02:00N 29°42' W 094°60'3 4.8
2017-Sep-21 01:29N 29°44' W 095°02'2 5.2
2017-Sep-21 01:00N 29°45' W 095°04'2 2.9
2017-Sep-21 00:27N 29°46' W 095°05'0 0.1
2017-Sep-20 21:56N 29°46' W 095°05'0 0.7
2017-Sep-20 21:30N 29°45' W 095°06'1 1.2
2017-Sep-20 21:00N 29°46' W 095°05'1 1.6
2017-Sep-20 20:07N 29°47' W 095°04'2 5.9
2017-Sep-20 19:52N 29°46' W 095°05'0 0.3
2017-Sep-20 18:58N 29°45' W 095°06'0 0.3
2017-Sep-20 17:36N 29°46' W 095°05'0 1.4
2017-Sep-20 17:30N 29°46' W 095°05'1 1.9
2017-Sep-20 16:58N 29°47' W 095°05'0 0.0
2017-Sep-20 12:22N 29°47' W 095°05'0 0.0
2017-Sep-20 11:56N 29°47' W 095°05'0 0.0
2017-Sep-20 11:11N 29°47' W 095°05'0 0.0
2017-Sep-20 09:44N 29°47' W 095°05'0 0.0
2017-Sep-20 07:58N 29°47' W 095°05'0 0.0
2017-Sep-20 07:13N 29°47' W 095°05'0 0.1
2017-Sep-20 06:57N 29°47' W 095°05'0 0.0
2017-Sep-20 06:26N 29°47' W 095°05'0 0.0
2017-Sep-20 05:55N 29°47' W 095°05'0 0.0
2017-Sep-20 05:26N 29°47' W 095°05'0 0.0
2017-Sep-20 04:50N 29°47' W 095°05'0 0.0
2017-Sep-20 04:23N 29°47' W 095°05'0 0.0
2017-Sep-20 04:00N 29°47' W 095°05'0 0.0
2017-Sep-20 03:18N 29°47' W 095°05'0 0.1
2017-Sep-20 02:31N 29°47' W 095°05'0 0.0
2017-Sep-20 02:30N 29°47' W 095°05'0 0.1
2017-Sep-20 01:53N 29°47' W 095°05'0 0.1
2017-Sep-20 01:30N 29°47' W 095°05'0 0.6
2017-Sep-20 01:00N 29°46' W 095°05'1 2.5
2017-Sep-20 00:25N 29°46' W 095°06'0 0.1
2017-Sep-19 20:13N 29°45' W 095°06'1 5.4
2017-Sep-19 19:58N 29°47' W 095°05'1 0.9
2017-Sep-19 18:29N 29°45' W 095°04'3 4.9
2017-Sep-19 17:59N 29°44' W 095°02'2 4.6
2017-Sep-19 17:30N 29°42' W 095°00'2 5.0
2017-Sep-19 17:00N 29°40' W 094°59'3 6.1
2017-Sep-19 16:30N 29°37' W 094°57'3 5.3
2017-Sep-19 16:00N 29°37' W 095°00'1 1.8
2017-Sep-19 15:30N 29°37' W 095°02'0 0.0
2017-Sep-19 15:00N 29°37' W 095°02'0 0.0
2017-Sep-19 14:30N 29°37' W 095°01'0 0.0
2017-Sep-19 14:00N 29°37' W 095°01'0 0.0
2017-Sep-19 13:30N 29°37' W 095°02'0 0.0
2017-Sep-19 13:00N 29°37' W 095°02'0 0.0
2017-Sep-19 12:30N 29°37' W 095°02'0 0.0
2017-Sep-19 12:00N 29°37' W 095°02'0 0.2
2017-Sep-19 11:30N 29°37' W 095°02'0 0.0
2017-Sep-19 11:00N 29°37' W 095°02'0 0.0
2017-Sep-19 10:30N 29°37' W 095°02'0 0.0
2017-Sep-19 10:00N 29°37' W 095°02'0 0.0
2017-Sep-19 09:30N 29°37' W 095°02'0 0.0
2017-Sep-19 09:00N 29°37' W 095°02'0 0.0
2017-Sep-19 08:30N 29°37' W 095°02'0 0.0
2017-Sep-19 08:00N 29°37' W 095°02'0 0.0
2017-Sep-19 07:30N 29°37' W 095°02'0 0.0
2017-Sep-19 07:00N 29°37' W 095°02'0 0.0
2017-Sep-19 06:30N 29°37' W 095°02'0 0.0
2017-Sep-19 06:00N 29°37' W 095°02'0 0.0
2017-Sep-19 05:30N 29°37' W 095°02'0 0.2
2017-Sep-19 05:00N 29°37' W 095°01'0 0.0
2017-Sep-19 04:30N 29°37' W 095°01'1 1.5
2017-Sep-19 04:00N 29°37' W 095°01'3 5.4
2017-Sep-19 03:30N 29°38' W 094°58'4 8.2
2017-Sep-19 03:00N 29°42' W 094°59'3 6.7
2017-Sep-19 02:30N 29°44' W 095°02'3 2.6
2017-Sep-19 01:09N 29°46' W 095°06'0 0.0
2017-Sep-19 01:00N 29°46' W 095°06'0 0.0
2017-Sep-19 00:30N 29°46' W 095°06'6 1.4
2017-Sep-18 19:54N 29°42' W 094°60'2 5.7
2017-Sep-18 19:30N 29°41' W 094°57'2 4.0
2017-Sep-18 19:00N 29°41' W 094°55'1 1.4
2017-Sep-18 18:29N 29°42' W 094°55'1 2.1
2017-Sep-18 17:57N 29°43' W 094°56'1 2.1
2017-Sep-18 17:30N 29°44' W 094°56'2 3.5
2017-Sep-18 16:50N 29°46' W 094°55'1 0.8
2017-Sep-18 15:55N 29°45' W 094°56'2 5.4
2017-Sep-18 15:29N 29°43' W 094°57'2 3.2
2017-Sep-18 14:56N 29°42' W 094°55'2 4.2
2017-Sep-18 14:30N 29°40' W 094°56'2 4.8
2017-Sep-18 14:00N 29°41' W 094°59'3 5.7
2017-Sep-18 13:30N 29°43' W 095°01'2 5.0
2017-Sep-18 13:00N 29°44' W 095°04'2 2.6
2017-Sep-18 12:06N 29°46' W 095°05'0 0.0
2017-Sep-18 11:58N 29°46' W 095°05'0 0.0
2017-Sep-18 11:26N 29°46' W 095°05'0 0.0
2017-Sep-18 10:23N 29°46' W 095°05'0 0.0
2017-Sep-18 07:25N 29°46' W 095°05'0 0.0
2017-Sep-18 06:45N 29°46' W 095°05'1 0.2
2017-Sep-18 02:48N 29°46' W 095°05'0 0.0
2017-Sep-18 02:11N 29°46' W 095°05'0 0.5
2017-Sep-18 01:46N 29°46' W 095°06'1 4.8
2017-Sep-18 01:29N 29°45' W 095°04'3 5.0
2017-Sep-18 00:57N 29°44' W 095°02'2 4.7
2017-Sep-18 00:30N 29°42' W 095°00'2 5.1
2017-Sep-18 00:00N 29°40' W 094°59'3 5.8
2017-Sep-17 23:30N 29°37' W 094°57'3 5.8
2017-Sep-17 23:00N 29°35' W 094°56'3 6.1
2017-Sep-17 22:30N 29°32' W 094°54'31 1.5
2017-Sep-17 02:30N 29°06' W 095°12'30 5.2
2017-Sep-16 20:43N 29°30' W 094°52'2 7.3
2017-Sep-16 20:29N 29°31' W 094°53'3 7.1
2017-Sep-16 20:00N 29°34' W 094°55'3 6.9
2017-Sep-16 19:30N 29°37' W 094°57'4 7.5
2017-Sep-16 19:00N 29°41' W 094°59'3 6.7
2017-Sep-16 18:30N 29°43' W 095°01'3 5.8
2017-Sep-16 18:00N 29°45' W 095°04'2 0.3
2017-Sep-16 12:35N 29°46' W 095°06'0 0.0
2017-Sep-16 12:28N 29°46' W 095°06'0 0.0
2017-Sep-16 11:50N 29°46' W 095°06'0 0.0
2017-Sep-16 11:30N 29°46' W 095°06'0 0.0
2017-Sep-16 09:23N 29°46' W 095°06'0 0.2
2017-Sep-16 07:31N 29°46' W 095°05'0 4.9
2017-Sep-16 07:25N 29°46' W 095°05'1 0.8
2017-Sep-16 05:46N 29°47' W 095°04'0 0.2
2017-Sep-16 04:18N 29°47' W 095°04'0 0.4
2017-Sep-16 03:51N 29°47' W 095°04'1 3.0
2017-Sep-16 03:29N 29°46' W 095°05'1 3.0
2017-Sep-16 03:00N 29°45' W 095°04'2 3.0
2017-Sep-16 02:21N 29°44' W 095°02'1 2.8
2017-Sep-16 02:00N 29°43' W 095°01'1 1.9
2017-Sep-16 01:25N 29°42' W 095°02'1 1.9
2017-Sep-16 01:00N 29°43' W 095°03'0 0.0
2017-Sep-15 19:01N 29°43' W 095°03'0 0.0
2017-Sep-15 18:52N 29°43' W 095°03'0 0.0
2017-Sep-15 18:25N 29°43' W 095°03'0 0.0
2017-Sep-15 16:43N 29°43' W 095°03'0 0.0
2017-Sep-15 16:18N 29°43' W 095°03'0 0.0
2017-Sep-15 15:39N 29°43' W 095°03'0 0.0
2017-Sep-15 15:24N 29°43' W 095°03'0 0.0
2017-Sep-15 13:57N 29°43' W 095°03'0 0.0
2017-Sep-15 13:30N 29°43' W 095°03'2 3.1
2017-Sep-15 13:00N 29°42' W 095°01'2 3.5
2017-Sep-15 12:30N 29°44' W 095°02'2 4.6
2017-Sep-15 12:00N 29°45' W 095°04'2 1.0
2017-Sep-15 10:07N 29°47' W 095°04'0 0.0
2017-Sep-15 09:53N 29°47' W 095°04'2 4.2
2017-Sep-15 09:30N 29°46' W 095°05'3 6.0
2017-Sep-15 09:00N 29°44' W 095°08'0 0.2
2017-Sep-15 07:41N 29°44' W 095°07'0 0.9
2017-Sep-15 07:24N 29°44' W 095°07'2 4.1
2017-Sep-15 06:59N 29°45' W 095°06'2 3.8
2017-Sep-15 06:30N 29°47' W 095°05'1 0.5
2017-Sep-15 05:15N 29°47' W 095°04'1 1.3
2017-Sep-15 04:10N 29°46' W 095°05'1 4.8
2017-Sep-15 03:58N 29°45' W 095°06'0 0.0
2017-Sep-14 23:15N 29°46' W 095°06'1 3.0
2017-Sep-14 22:59N 29°46' W 095°05'1 0.3
2017-Sep-14 20:04N 29°45' W 095°06'0 5.1
2017-Sep-14 19:59N 29°46' W 095°05'0 0.3
2017-Sep-14 18:36N 29°46' W 095°05'1 0.3
2017-Sep-14 16:05N 29°45' W 095°06'0 4.7
2017-Sep-14 15:59N 29°46' W 095°05'2 3.4
2017-Sep-14 15:26N 29°47' W 095°04'0 0.0
2017-Sep-14 14:08N 29°47' W 095°04'0 0.4
2017-Sep-14 13:38N 29°47' W 095°04'0 0.0
2017-Sep-14 13:17N 29°47' W 095°04'0 0.0
2017-Sep-14 12:57N 29°47' W 095°04'0 0.0
2017-Sep-14 12:22N 29°47' W 095°04'0 0.0
2017-Sep-14 10:47N 29°47' W 095°04'1 0.8
2017-Sep-14 09:50N 29°47' W 095°05'2 3.2
2017-Sep-14 09:14N 29°46' W 095°06'0 0.2
2017-Sep-14 08:59N 29°46' W 095°07'0 0.2
2017-Sep-14 08:24N 29°46' W 095°07'0 0.2
2017-Sep-14 07:54N 29°46' W 095°07'0 0.0
2017-Sep-14 07:28N 29°46' W 095°07'0 0.0
2017-Sep-14 07:00N 29°46' W 095°07'2 3.9
2017-Sep-14 06:26N 29°45' W 095°04'3 6.0
2017-Sep-14 05:59N 29°44' W 095°02'1 3.1
2017-Sep-14 05:30N 29°42' W 095°03'1 0.6
2017-Sep-14 04:31N 29°43' W 095°03'0 1.6
2017-Sep-14 04:30N 29°42' W 095°03'0 0.0
2017-Sep-14 04:00N 29°42' W 095°03'1 1.5
2017-Sep-14 03:30N 29°42' W 095°02'1 2.3
2017-Sep-14 03:00N 29°43' W 095°01'2 5.0
2017-Sep-14 02:30N 29°44' W 095°04'2 1.2
2017-Sep-14 00:33N 29°47' W 095°05'1 4.7
2017-Sep-14 00:19N 29°46' W 095°05'0 1.0
2017-Sep-14 00:00N 29°46' W 095°06'0 0.0
2017-Sep-13 23:09N 29°46' W 095°06'0 0.0
2017-Sep-13 22:45N 29°46' W 095°06'0 0.0
2017-Sep-13 22:30N 29°46' W 095°06'0 0.0
2017-Sep-13 21:57N 29°46' W 095°06'0 0.0
2017-Sep-13 21:30N 29°46' W 095°06'0 0.0
2017-Sep-13 19:48N 29°46' W 095°06'0 0.0
2017-Sep-13 18:30N 29°46' W 095°06'0 0.0
2017-Sep-13 17:48N 29°46' W 095°06'0 0.0
2017-Sep-13 17:30N 29°46' W 095°06'0 0.0
2017-Sep-13 17:00N 29°46' W 095°06'0 0.0
2017-Sep-13 16:29N 29°46' W 095°06'0 0.0
2017-Sep-13 15:59N 29°46' W 095°06'0 0.5
2017-Sep-13 15:30N 29°46' W 095°05'0 0.0
2017-Sep-13 14:57N 29°46' W 095°05'0 0.0
2017-Sep-13 14:26N 29°46' W 095°05'0 0.3
2017-Sep-13 13:59N 29°46' W 095°05'0 0.3
2017-Sep-13 12:27N 29°45' W 095°06'0 0.9
2017-Sep-13 11:59N 29°46' W 095°06'0 0.0
2017-Sep-13 11:27N 29°46' W 095°06'0 0.0
2017-Sep-13 11:00N 29°46' W 095°06'1 1.9
2017-Sep-13 10:30N 29°46' W 095°05'1 1.9
2017-Sep-13 10:01N 29°47' W 095°04'1 1.0
2017-Sep-13 09:28N 29°47' W 095°05'2 4.5
2017-Sep-13 08:59N 29°45' W 095°04'3 5.5
2017-Sep-13 08:30N 29°43' W 095°01'3 5.1
2017-Sep-13 08:01N 29°41' W 094°59'3 5.6
2017-Sep-13 07:31N 29°39' W 094°58'3 5.8
2017-Sep-13 07:01N 29°36' W 094°57'3 5.3
2017-Sep-13 06:31N 29°34' W 094°55'3 5.9
2017-Sep-13 06:00N 29°31' W 094°53'  
Track history (hours):
 
Tides and Currents Weather Stations Pressure Air Temp Water Temp Dewpoint Dewpoint Depression Visibility Wind Speed Wind Dir Waves Ship Positions

Nueces

Owner: Kirby Inland Marine LP, Houston, TX. More information available from US FCC via Universal Licensing System and Coast Guard Vessel Documentation Center.

Last reported at 2017-Sep-21 04:52 UTC. Time now 2017-Sep-22 19:09 UTC.
Position N 29°28' W 094°51'.

Length 109 m; draft 2.9 m.

Type: . MMSI: 366995720.

Date/timePositionNaut miles runAvg speedWind from/ knotsBaromVisibWave heightAir tempDewpointWater temp
2017-Sep-21 04:52N 29°28' W 094°51'2 5.9
2017-Sep-21 04:30N 29°30' W 094°52'3 5.8
2017-Sep-21 04:00N 29°32' W 094°54'3 5.5
2017-Sep-21 03:30N 29°34' W 094°56'3 5.4
2017-Sep-21 03:00N 29°37' W 094°57'3 5.6
2017-Sep-21 02:30N 29°39' W 094°58'3 5.4
2017-Sep-21 02:00N 29°42' W 094°60'3 4.8
2017-Sep-21 01:29N 29°44' W 095°02'2 5.2
2017-Sep-21 01:00N 29°45' W 095°04'2 2.9
2017-Sep-21 00:27N 29°46' W 095°05'0 0.1
2017-Sep-20 21:56N 29°46' W 095°05'0 0.7
2017-Sep-20 21:30N 29°45' W 095°06'1 1.2
2017-Sep-20 21:00N 29°46' W 095°05'1 1.6
2017-Sep-20 20:07N 29°47' W 095°04'2 5.9
2017-Sep-20 19:52N 29°46' W 095°05'0 0.3
2017-Sep-20 18:58N 29°45' W 095°06'0 0.3
2017-Sep-20 17:36N 29°46' W 095°05'0 1.4
2017-Sep-20 17:30N 29°46' W 095°05'1 1.9
2017-Sep-20 16:58N 29°47' W 095°05'0 0.0
2017-Sep-20 12:22N 29°47' W 095°05'0 0.0
2017-Sep-20 11:56N 29°47' W 095°05'0 0.0
2017-Sep-20 11:11N 29°47' W 095°05'0 0.0
2017-Sep-20 09:44N 29°47' W 095°05'0 0.0
2017-Sep-20 07:58N 29°47' W 095°05'0 0.0
2017-Sep-20 07:13N 29°47' W 095°05'0 0.1
2017-Sep-20 06:57N 29°47' W 095°05'0 0.0
2017-Sep-20 06:26N 29°47' W 095°05'0 0.0
2017-Sep-20 05:55N 29°47' W 095°05'0 0.0
2017-Sep-20 05:26N 29°47' W 095°05'0 0.0
2017-Sep-20 04:50N 29°47' W 095°05'0 0.0
2017-Sep-20 04:23N 29°47' W 095°05'0 0.0
2017-Sep-20 04:00N 29°47' W 095°05'0 0.0
2017-Sep-20 03:18N 29°47' W 095°05'0 0.1
2017-Sep-20 02:31N 29°47' W 095°05'0 0.0
2017-Sep-20 02:30N 29°47' W 095°05'0 0.1
2017-Sep-20 01:53N 29°47' W 095°05'0 0.1
2017-Sep-20 01:30N 29°47' W 095°05'0 0.6
2017-Sep-20 01:00N 29°46' W 095°05'1 2.5
2017-Sep-20 00:25N 29°46' W 095°06'0 0.1
2017-Sep-19 20:13N 29°45' W 095°06'1 5.4
2017-Sep-19 19:58N 29°47' W 095°05'1 0.9
2017-Sep-19 18:29N 29°45' W 095°04'3 4.9
2017-Sep-19 17:59N 29°44' W 095°02'2 4.6
2017-Sep-19 17:30N 29°42' W 095°00'2 5.0
2017-Sep-19 17:00N 29°40' W 094°59'3 6.1
2017-Sep-19 16:30N 29°37' W 094°57'3 5.3
2017-Sep-19 16:00N 29°37' W 095°00'1 1.8
2017-Sep-19 15:30N 29°37' W 095°02'0 0.0
2017-Sep-19 15:00N 29°37' W 095°02'0 0.0
2017-Sep-19 14:30N 29°37' W 095°01'0 0.0
2017-Sep-19 14:00N 29°37' W 095°01'0 0.0
2017-Sep-19 13:30N 29°37' W 095°02'0 0.0
2017-Sep-19 13:00N 29°37' W 095°02'0 0.0
2017-Sep-19 12:30N 29°37' W 095°02'0 0.0
2017-Sep-19 12:00N 29°37' W 095°02'0 0.2
2017-Sep-19 11:30N 29°37' W 095°02'0 0.0
2017-Sep-19 11:00N 29°37' W 095°02'0 0.0
2017-Sep-19 10:30N 29°37' W 095°02'0 0.0
2017-Sep-19 10:00N 29°37' W 095°02'0 0.0
2017-Sep-19 09:30N 29°37' W 095°02'0 0.0
2017-Sep-19 09:00N 29°37' W 095°02'0 0.0
2017-Sep-19 08:30N 29°37' W 095°02'0 0.0
2017-Sep-19 08:00N 29°37' W 095°02'0 0.0
2017-Sep-19 07:30N 29°37' W 095°02'0 0.0
2017-Sep-19 07:00N 29°37' W 095°02'0 0.0
2017-Sep-19 06:30N 29°37' W 095°02'0 0.0
2017-Sep-19 06:00N 29°37' W 095°02'0 0.0
2017-Sep-19 05:30N 29°37' W 095°02'0 0.2
2017-Sep-19 05:00N 29°37' W 095°01'0 0.0
2017-Sep-19 04:30N 29°37' W 095°01'1 1.5
2017-Sep-19 04:00N 29°37' W 095°01'3 5.4
2017-Sep-19 03:30N 29°38' W 094°58'4 8.2
2017-Sep-19 03:00N 29°42' W 094°59'3 6.7
2017-Sep-19 02:30N 29°44' W 095°02'3 2.6
2017-Sep-19 01:09N 29°46' W 095°06'0 0.0
2017-Sep-19 01:00N 29°46' W 095°06'0 0.0
2017-Sep-19 00:30N 29°46' W 095°06'6 1.4
2017-Sep-18 19:54N 29°42' W 094°60'2 5.7
2017-Sep-18 19:30N 29°41' W 094°57'2 4.0
2017-Sep-18 19:00N 29°41' W 094°55'1 1.4
2017-Sep-18 18:29N 29°42' W 094°55'1 2.1
2017-Sep-18 17:57N 29°43' W 094°56'1 2.1
2017-Sep-18 17:30N 29°44' W 094°56'2 3.5
2017-Sep-18 16:50N 29°46' W 094°55'1 0.8
2017-Sep-18 15:55N 29°45' W 094°56'2 5.4
2017-Sep-18 15:29N 29°43' W 094°57'2 3.2
2017-Sep-18 14:56N 29°42' W 094°55'2 4.2
2017-Sep-18 14:30N 29°40' W 094°56'2 4.8
2017-Sep-18 14:00N 29°41' W 094°59'3 5.7
2017-Sep-18 13:30N 29°43' W 095°01'2 5.0
2017-Sep-18 13:00N 29°44' W 095°04'2 2.6
2017-Sep-18 12:06N 29°46' W 095°05'0 0.0
2017-Sep-18 11:58N 29°46' W 095°05'0 0.0
2017-Sep-18 11:26N 29°46' W 095°05'0 0.0
2017-Sep-18 10:23N 29°46' W 095°05'0 0.0
2017-Sep-18 07:25N 29°46' W 095°05'0 0.0
2017-Sep-18 06:45N 29°46' W 095°05'1 0.2
2017-Sep-18 02:48N 29°46' W 095°05'0 0.0
2017-Sep-18 02:11N 29°46' W 095°05'0 0.5
2017-Sep-18 01:46N 29°46' W 095°06'1 4.8
2017-Sep-18 01:29N 29°45' W 095°04'3 5.0
2017-Sep-18 00:57N 29°44' W 095°02'2 4.7
2017-Sep-18 00:30N 29°42' W 095°00'2 5.1
2017-Sep-18 00:00N 29°40' W 094°59'3 5.8
2017-Sep-17 23:30N 29°37' W 094°57'3 5.8
2017-Sep-17 23:00N 29°35' W 094°56'3 6.1
2017-Sep-17 22:30N 29°32' W 094°54'31 1.5
2017-Sep-17 02:30N 29°06' W 095°12'30 5.2
2017-Sep-16 20:43N 29°30' W 094°52'2 7.3
2017-Sep-16 20:29N 29°31' W 094°53'3 7.1
2017-Sep-16 20:00N 29°34' W 094°55'3 6.9
2017-Sep-16 19:30N 29°37' W 094°57'4 7.5
2017-Sep-16 19:00N 29°41' W 094°59'3 6.7
2017-Sep-16 18:30N 29°43' W 095°01'3 5.8
2017-Sep-16 18:00N 29°45' W 095°04'2 0.3
2017-Sep-16 12:35N 29°46' W 095°06'0 0.0
2017-Sep-16 12:28N 29°46' W 095°06'0 0.0
2017-Sep-16 11:50N 29°46' W 095°06'0 0.0
2017-Sep-16 11:30N 29°46' W 095°06'0 0.0
2017-Sep-16 09:23N 29°46' W 095°06'0 0.2
2017-Sep-16 07:31N 29°46' W 095°05'0 4.9
2017-Sep-16 07:25N 29°46' W 095°05'1 0.8
2017-Sep-16 05:46N 29°47' W 095°04'0 0.2
2017-Sep-16 04:18N 29°47' W 095°04'0 0.4
2017-Sep-16 03:51N 29°47' W 095°04'1 3.0
2017-Sep-16 03:29N 29°46' W 095°05'1 3.0
2017-Sep-16 03:00N 29°45' W 095°04'2 3.0
2017-Sep-16 02:21N 29°44' W 095°02'1 2.8
2017-Sep-16 02:00N 29°43' W 095°01'1 1.9
2017-Sep-16 01:25N 29°42' W 095°02'1 1.9
2017-Sep-16 01:00N 29°43' W 095°03'0 0.0
2017-Sep-15 19:01N 29°43' W 095°03'0 0.0
2017-Sep-15 18:52N 29°43' W 095°03'0 0.0
2017-Sep-15 18:25N 29°43' W 095°03'0 0.0
2017-Sep-15 16:43N 29°43' W 095°03'0 0.0
2017-Sep-15 16:18N 29°43' W 095°03'0 0.0
2017-Sep-15 15:39N 29°43' W 095°03'0 0.0
2017-Sep-15 15:24N 29°43' W 095°03'0 0.0
2017-Sep-15 13:57N 29°43' W 095°03'0 0.0
2017-Sep-15 13:30N 29°43' W 095°03'2 3.1
2017-Sep-15 13:00N 29°42' W 095°01'2 3.5
2017-Sep-15 12:30N 29°44' W 095°02'2 4.6
2017-Sep-15 12:00N 29°45' W 095°04'2 1.0
2017-Sep-15 10:07N 29°47' W 095°04'0 0.0
2017-Sep-15 09:53N 29°47' W 095°04'2 4.2
2017-Sep-15 09:30N 29°46' W 095°05'3 6.0
2017-Sep-15 09:00N 29°44' W 095°08'0 0.2
2017-Sep-15 07:41N 29°44' W 095°07'0 0.9
2017-Sep-15 07:24N 29°44' W 095°07'2 4.1
2017-Sep-15 06:59N 29°45' W 095°06'2 3.8
2017-Sep-15 06:30N 29°47' W 095°05'1 0.5
2017-Sep-15 05:15N 29°47' W 095°04'1 1.3
2017-Sep-15 04:10N 29°46' W 095°05'1 4.8
2017-Sep-15 03:58N 29°45' W 095°06'0 0.0
2017-Sep-14 23:15N 29°46' W 095°06'1 3.0
2017-Sep-14 22:59N 29°46' W 095°05'1 0.3
2017-Sep-14 20:04N 29°45' W 095°06'0 5.1
2017-Sep-14 19:59N 29°46' W 095°05'0 0.3
2017-Sep-14 18:36N 29°46' W 095°05'1 0.3
2017-Sep-14 16:05N 29°45' W 095°06'0 4.7
2017-Sep-14 15:59N 29°46' W 095°05'2 3.4
2017-Sep-14 15:26N 29°47' W 095°04'0 0.0
2017-Sep-14 14:08N 29°47' W 095°04'0 0.4
2017-Sep-14 13:38N 29°47' W 095°04'0 0.0
2017-Sep-14 13:17N 29°47' W 095°04'0 0.0
2017-Sep-14 12:57N 29°47' W 095°04'0 0.0
2017-Sep-14 12:22N 29°47' W 095°04'0 0.0
2017-Sep-14 10:47N 29°47' W 095°04'1 0.8
2017-Sep-14 09:50N 29°47' W 095°05'2 3.2
2017-Sep-14 09:14N 29°46' W 095°06'0 0.2
2017-Sep-14 08:59N 29°46' W 095°07'0 0.2
2017-Sep-14 08:24N 29°46' W 095°07'0 0.2
2017-Sep-14 07:54N 29°46' W 095°07'0 0.0
2017-Sep-14 07:28N 29°46' W 095°07'0 0.0
2017-Sep-14 07:00N 29°46' W 095°07'2 3.9
2017-Sep-14 06:26N 29°45' W 095°04'3 6.0
2017-Sep-14 05:59N 29°44' W 095°02'1 3.1
2017-Sep-14 05:30N 29°42' W 095°03'1 0.6
2017-Sep-14 04:31N 29°43' W 095°03'0 1.6
2017-Sep-14 04:30N 29°42' W 095°03'0 0.0
2017-Sep-14 04:00N 29°42' W 095°03'1 1.5
2017-Sep-14 03:30N 29°42' W 095°02'1 2.3
2017-Sep-14 03:00N 29°43' W 095°01'2 5.0
2017-Sep-14 02:30N 29°44' W 095°04'2 1.2
2017-Sep-14 00:33N 29°47' W 095°05'1 4.7
2017-Sep-14 00:19N 29°46' W 095°05'0 1.0
2017-Sep-14 00:00N 29°46' W 095°06'0 0.0
2017-Sep-13 23:09N 29°46' W 095°06'0 0.0
2017-Sep-13 22:45N 29°46' W 095°06'0 0.0
2017-Sep-13 22:30N 29°46' W 095°06'0 0.0
2017-Sep-13 21:57N 29°46' W 095°06'0 0.0
2017-Sep-13 21:30N 29°46' W 095°06'0 0.0
2017-Sep-13 19:48N 29°46' W 095°06'0 0.0
2017-Sep-13 18:30N 29°46' W 095°06'0 0.0
2017-Sep-13 17:48N 29°46' W 095°06'0 0.0
2017-Sep-13 17:30N 29°46' W 095°06'0 0.0
2017-Sep-13 17:00N 29°46' W 095°06'0 0.0
2017-Sep-13 16:29N 29°46' W 095°06'0 0.0
2017-Sep-13 15:59N 29°46' W 095°06'0 0.5
2017-Sep-13 15:30N 29°46' W 095°05'0 0.0
2017-Sep-13 14:57N 29°46' W 095°05'0 0.0
2017-Sep-13 14:26N 29°46' W 095°05'0 0.3
2017-Sep-13 13:59N 29°46' W 095°05'0 0.3
2017-Sep-13 12:27N 29°45' W 095°06'0 0.9
2017-Sep-13 11:59N 29°46' W 095°06'0 0.0
2017-Sep-13 11:27N 29°46' W 095°06'0 0.0
2017-Sep-13 11:00N 29°46' W 095°06'1 1.9
2017-Sep-13 10:30N 29°46' W 095°05'1 1.9
2017-Sep-13 10:01N 29°47' W 095°04'1 1.0
2017-Sep-13 09:28N 29°47' W 095°05'2 4.5
2017-Sep-13 08:59N 29°45' W 095°04'3 5.5
2017-Sep-13 08:30N 29°43' W 095°01'3 5.1
2017-Sep-13 08:01N 29°41' W 094°59'3 5.6
2017-Sep-13 07:31N 29°39' W 094°58'3 5.8
2017-Sep-13 07:01N 29°36' W 094°57'3 5.3
2017-Sep-13 06:31N 29°34' W 094°55'3 5.9
2017-Sep-13 06:00N 29°31' W 094°53'  

Dump ship's entire track history